Time;durP1;ratioP1;P1;durP2;ratioP2;P2;SDS_P1;SDS_P2;PMS_P1;PMS_P2;Temp;Humidity;BMP_temperature;BMP_pressure;BME280_temperature;BME280_humidity;BME280_pressure;Samples;Min_cycle;Max_cycle;Signal;HPM_P1;HPM_P2
2022/10/21 00:00:17;;;;;;;69.37;32.47;;;13.20;99.90;;;;;;5019242;28;20206;-76
2022/10/21 00:02:44;;;;;;;73.27;33.40;;;13.20;99.90;;;;;;5024364;28;20237;-77
2022/10/21 00:05:12;;;;;;;76.07;34.40;;;13.20;99.90;;;;;;5021826;28;20242;-78
2022/10/21 00:07:42;;;;;;;78.00;33.53;;;13.20;99.90;;;;;;5024463;28;20235;-78
2022/10/21 00:10:11;;;;;;;78.73;33.53;;;13.30;99.90;;;;;;5025756;28;20296;-78
2022/10/21 00:12:38;;;;;;;73.03;33.07;;;13.20;99.90;;;;;;5022294;28;20260;-77
2022/10/21 00:15:07;;;;;;;72.10;33.50;;;13.30;99.90;;;;;;5030863;28;20209;-76
2022/10/21 00:17:36;;;;;;;78.30;34.00;;;13.30;99.90;;;;;;5023755;28;20261;-77
2022/10/21 00:20:08;;;;;;;78.87;33.97;;;13.30;99.90;;;;;;5023786;28;20211;-76
2022/10/21 00:22:36;;;;;;;76.93;33.87;;;13.40;99.90;;;;;;5023225;28;20195;-76
2022/10/21 00:25:04;;;;;;;73.67;31.40;;;13.40;99.90;;;;;;5028675;28;20757;-76
2022/10/21 00:27:31;;;;;;;80.37;33.40;;;13.40;99.90;;;;;;5022052;28;20594;-77
2022/10/21 00:29:57;;;;;;;81.90;32.80;;;13.50;99.90;;;;;;5026800;28;20213;-77
2022/10/21 00:32:24;;;;;;;79.23;33.27;;;13.50;99.90;;;;;;5021774;28;20309;-76
2022/10/21 00:34:51;;;;;;;70.10;32.50;;;13.60;99.90;;;;;;5024965;28;20328;-77
2022/10/21 00:37:18;;;;;;;76.20;32.83;;;13.60;99.90;;;;;;5020511;28;20306;-76
2022/10/21 00:39:44;;;;;;;83.30;32.20;;;13.60;99.90;;;;;;5027599;28;20212;-75
2022/10/21 00:42:16;;;;;;;70.67;32.00;;;13.60;99.90;;;;;;5024234;28;20666;-76
2022/10/21 00:45:00;;;;;;;79.37;34.07;;;13.70;99.90;;;;;;5022573;28;20640;-77
2022/10/21 00:47:27;;;;;;;72.60;31.03;;;13.70;99.90;;;;;;5023896;28;20205;-77
2022/10/21 00:50:02;;;;;;;79.40;32.57;;;13.70;99.90;;;;;;5025606;28;20214;-76
2022/10/21 00:52:33;;;;;;;85.43;33.93;;;13.80;99.90;;;;;;5028840;28;20631;-76
2022/10/21 00:55:03;;;;;;;83.77;34.67;;;13.80;99.90;;;;;;5023652;28;20301;-76
2022/10/21 00:57:37;;;;;;;77.70;32.57;;;13.80;99.90;;;;;;5023786;28;20946;-75
2022/10/21 01:00:05;;;;;;;85.80;34.40;;;13.90;99.90;;;;;;5018478;28;20621;-75
2022/10/21 01:02:32;;;;;;;88.73;35.73;;;13.90;99.90;;;;;;5027631;28;20252;-75
2022/10/21 01:05:03;;;;;;;76.17;33.73;;;13.90;99.90;;;;;;5021141;28;20304;-75
2022/10/21 01:07:30;;;;;;;89.57;35.50;;;14.00;99.90;;;;;;5019855;28;20230;-74
2022/10/21 01:09:56;;;;;;;84.63;35.53;;;14.00;99.90;;;;;;5023471;28;20644;-74
2022/10/21 01:12:42;;;;;;;94.53;35.20;;;14.00;99.90;;;;;;5020470;28;20765;-73
2022/10/21 01:15:35;;;;;;;90.37;34.90;;;14.00;99.90;;;;;;5027495;28;20286;-74
2022/10/21 01:18:20;;;;;;;88.43;35.10;;;14.00;99.90;;;;;;5027201;28;20230;-74
2022/10/21 01:20:55;;;;;;;80.47;32.80;;;14.10;99.90;;;;;;5024737;28;20225;-75
2022/10/21 01:23:37;;;;;;;87.80;33.00;;;14.10;99.90;;;;;;5024501;28;20206;-75
2022/10/21 01:26:25;;;;;;;77.67;32.77;;;14.10;99.90;;;;;;5020223;28;20292;-73
2022/10/21 01:29:24;;;;;;;78.77;33.17;;;14.10;99.90;;;;;;5036176;28;20244;-75
2022/10/21 01:31:51;;;;;;;82.27;33.43;;;14.10;99.90;;;;;;5019538;28;20256;-74
2022/10/21 01:34:47;;;;;;;79.77;32.97;;;14.10;99.90;;;;;;5022315;28;20324;-75
2022/10/21 01:37:24;;;;;;;81.37;32.07;;;14.20;99.90;;;;;;5022182;28;20595;-74
2022/10/21 01:40:01;;;;;;;77.30;32.30;;;14.20;99.90;;;;;;5022902;28;20210;-75
2022/10/21 01:42:41;;;;;;;82.10;32.97;;;14.20;99.90;;;;;;5027945;28;20208;-76
2022/10/21 01:45:17;;;;;;;78.83;31.83;;;14.20;99.90;;;;;;5027912;28;20202;-75
2022/10/21 01:47:49;;;;;;;82.87;32.73;;;14.20;99.90;;;;;;5026175;28;20237;-75
2022/10/21 01:50:24;;;;;;;89.20;33.57;;;14.20;99.90;;;;;;5025322;28;20222;-75
2022/10/21 01:52:56;;;;;;;85.47;34.80;;;14.20;99.90;;;;;;5025327;28;20202;-75
2022/10/21 01:55:27;;;;;;;88.97;32.63;;;14.10;99.90;;;;;;5032375;28;20735;-76
2022/10/21 01:58:00;;;;;;;82.10;31.73;;;14.10;99.90;;;;;;5033360;28;20699;-76
2022/10/21 02:00:28;;;;;;;89.57;32.87;;;14.10;99.90;;;;;;5049540;28;20670;-76
2022/10/21 02:02:57;;;;;;;95.60;32.87;;;14.00;99.90;;;;;;5030905;28;20230;-77
2022/10/21 02:05:30;;;;;;;95.47;34.40;;;14.00;99.90;;;;;;5026253;28;20221;-76
2022/10/21 02:07:57;;;;;;;83.37;32.73;;;14.00;99.90;;;;;;5023708;28;20210;-76
2022/10/21 02:10:28;;;;;;;92.77;33.97;;;14.00;99.90;;;;;;5021106;28;20285;-77
2022/10/21 02:12:58;;;;;;;95.60;32.87;;;14.00;99.90;;;;;;5028158;28;20670;-76
2022/10/21 02:15:28;;;;;;;84.93;31.83;;;13.90;99.90;;;;;;5018917;28;20201;-77
2022/10/21 02:18:08;;;;;;;90.43;33.23;;;13.90;99.90;;;;;;5025180;28;20665;-76
2022/10/21 02:20:39;;;;;;;84.57;32.33;;;13.90;99.90;;;;;;5032031;28;20305;-77
2022/10/21 02:23:08;;;;;;;78.50;32.40;;;13.90;99.90;;;;;;5023658;28;20213;-75
2022/10/21 02:25:39;;;;;;;76.17;30.17;;;13.90;99.90;;;;;;5032149;28;20194;-77
2022/10/21 02:28:06;;;;;;;83.77;32.20;;;13.80;99.90;;;;;;5025432;28;20242;-76
2022/10/21 02:31:04;;;;;;;99.97;33.97;;;13.70;99.90;;;;;;5020869;28;20654;-76
2022/10/21 02:34:05;;;;;;;93.43;33.40;;;13.70;99.90;;;;;;5046276;28;20234;-76
2022/10/21 02:36:54;;;;;;;91.17;31.90;;;13.70;99.90;;;;;;5037680;28;20230;-76
2022/10/21 02:39:33;;;;;;;90.87;32.50;;;13.70;99.90;;;;;;5020670;28;20206;-77
2022/10/21 02:42:03;;;;;;;102.40;33.93;;;13.50;99.90;;;;;;5028296;28;20646;-76
2022/10/21 02:44:30;;;;;;;100.97;33.37;;;13.60;99.90;;;;;;5025525;28;20214;-77
2022/10/21 02:46:57;;;;;;;95.77;32.77;;;13.60;99.90;;;;;;5025954;28;20254;-76
2022/10/21 02:49:24;;;;;;;85.83;33.20;;;13.60;99.90;;;;;;5020411;28;20337;-77
2022/10/21 02:51:52;;;;;;;83.93;33.00;;;13.50;99.90;;;;;;5030765;28;20274;-77
2022/10/21 02:54:19;;;;;;;104.80;34.60;;;13.50;99.90;;;;;;5023096;28;20201;-77
2022/10/21 02:56:46;;;;;;;200.33;37.77;;;13.50;99.90;;;;;;5028318;28;20225;-76
2022/10/21 02:59:13;;;;;;;98.17;33.53;;;13.40;99.90;;;;;;5025869;28;20244;-77
2022/10/21 03:01:40;;;;;;;103.47;34.43;;;13.40;99.90;;;;;;5025895;28;20198;-76
2022/10/21 03:04:06;;;;;;;131.13;35.40;;;13.40;99.90;;;;;;5026438;28;20578;-76
2022/10/21 03:06:33;;;;;;;134.63;35.23;;;13.40;99.90;;;;;;5026901;28;20202;-77
2022/10/21 03:09:00;;;;;;;250.37;37.00;;;13.30;99.90;;;;;;5030132;28;20335;-75
2022/10/21 03:11:27;;;;;;;401.63;47.73;;;13.30;99.90;;;;;;5030260;28;20202;-77
2022/10/21 03:13:56;;;;;;;174.80;35.17;;;13.30;99.90;;;;;;5024805;28;20193;-76
2022/10/21 03:16:23;;;;;;;278.93;40.03;;;13.20;99.90;;;;;;5019853;28;20329;-77
2022/10/21 03:18:53;;;;;;;301.33;42.60;;;13.20;99.90;;;;;;5046114;28;20209;-77
2022/10/21 03:21:20;;;;;;;263.43;39.80;;;13.10;99.90;;;;;;5025303;28;20233;-77
2022/10/21 03:23:46;;;;;;;140.13;31.00;;;13.10;99.90;;;;;;5024777;28;20220;-76
2022/10/21 03:26:13;;;;;;;143.80;31.53;;;13.00;99.90;;;;;;5025821;28;20274;-76
2022/10/21 03:28:40;;;;;;;151.70;32.73;;;13.00;99.90;;;;;;5030548;28;20320;-76
2022/10/21 03:31:07;;;;;;;152.23;33.10;;;13.00;99.90;;;;;;5024286;28;20216;-76
2022/10/21 03:33:34;;;;;;;113.87;33.03;;;13.00;99.90;;;;;;5023531;28;20233;-76
2022/10/21 03:36:00;;;;;;;88.80;31.77;;;12.90;99.90;;;;;;5025222;28;20233;-77
2022/10/21 03:38:27;;;;;;;106.93;31.57;;;12.80;99.90;;;;;;5027762;28;20235;-76
2022/10/21 03:40:54;;;;;;;124.93;31.07;;;12.80;99.90;;;;;;5029075;28;20202;-76
2022/10/21 03:43:21;;;;;;;161.53;34.27;;;12.80;99.90;;;;;;5025874;28;20210;-78
2022/10/21 03:45:47;;;;;;;124.30;32.60;;;12.80;99.90;;;;;;5020048;28;20581;-76
2022/10/21 03:48:14;;;;;;;178.87;34.23;;;12.70;99.90;;;;;;5026712;28;20772;-77
2022/10/21 03:50:41;;;;;;;314.67;44.03;;;12.70;99.90;;;;;;5026688;28;20219;-76
2022/10/21 03:53:08;;;;;;;148.90;33.53;;;12.70;99.90;;;;;;5021794;28;20271;-77
2022/10/21 03:55:44;;;;;;;119.40;31.33;;;12.70;99.90;;;;;;5029038;28;20205;-77
2022/10/21 03:58:13;;;;;;;151.30;35.77;;;12.70;99.90;;;;;;5025258;28;20222;-77
2022/10/21 04:00:40;;;;;;;144.73;34.60;;;12.60;99.90;;;;;;5026549;28;20253;-77
2022/10/21 04:03:07;;;;;;;210.13;36.53;;;12.60;99.90;;;;;;5024733;28;20198;-76
2022/10/21 04:05:34;;;;;;;140.47;36.30;;;12.60;99.90;;;;;;5019340;28;20300;-77
2022/10/21 04:08:00;;;;;;;418.43;52.30;;;12.60;99.90;;;;;;5025114;28;20333;-76
2022/10/21 04:10:27;;;;;;;249.13;40.60;;;12.50;99.90;;;;;;5027828;28;20336;-76
2022/10/21 04:12:54;;;;;;;255.70;43.40;;;12.50;99.90;;;;;;5024534;28;20293;-78
2022/10/21 04:15:21;;;;;;;318.03;42.27;;;12.50;99.90;;;;;;5020570;28;20206;-77
2022/10/21 04:17:47;;;;;;;604.30;62.83;;;12.50;99.90;;;;;;5017632;28;20658;-77
2022/10/21 04:20:17;;;;;;;152.40;36.33;;;12.40;99.90;;;;;;5026701;28;20295;-76
2022/10/21 04:22:44;;;;;;;172.47;37.27;;;12.40;99.90;;;;;;5018497;28;20261;-76
2022/10/21 04:25:11;;;;;;;118.00;34.27;;;12.40;99.90;;;;;;5024935;28;20295;-76
2022/10/21 04:27:37;;;;;;;136.23;36.70;;;12.30;99.90;;;;;;5028134;28;20656;-76
2022/10/21 04:30:05;;;;;;;155.90;38.87;;;12.40;99.90;;;;;;5027274;28;20288;-77
2022/10/21 04:32:31;;;;;;;154.90;36.60;;;12.40;99.90;;;;;;5021665;28;20309;-77
2022/10/21 04:34:58;;;;;;;189.93;38.90;;;12.40;99.90;;;;;;5024447;28;20562;-78
2022/10/21 04:37:25;;;;;;;146.77;36.67;;;12.30;99.90;;;;;;5023684;28;20221;-77
2022/10/21 04:39:52;;;;;;;211.17;40.23;;;12.30;99.90;;;;;;5025240;28;20544;-77
2022/10/21 04:42:19;;;;;;;226.30;39.30;;;12.30;99.90;;;;;;5023836;28;20315;-78
2022/10/21 04:44:45;;;;;;;224.47;40.67;;;12.30;99.90;;;;;;5019124;28;20320;-78
2022/10/21 04:47:12;;;;;;;209.03;37.33;;;12.30;99.90;;;;;;5020157;28;20658;-77
2022/10/21 04:49:39;;;;;;;130.90;33.80;;;12.20;99.90;;;;;;5021106;28;20224;-78
2022/10/21 04:52:05;;;;;;;122.50;33.70;;;12.10;99.90;;;;;;5031419;28;20217;-77
2022/10/21 04:54:32;;;;;;;242.00;40.67;;;12.20;99.90;;;;;;5017528;28;20552;-77
2022/10/21 04:57:00;;;;;;;214.17;42.03;;;12.20;99.90;;;;;;5024924;28;20205;-76
2022/10/21 04:59:30;;;;;;;149.47;36.73;;;12.20;99.90;;;;;;5021884;28;20205;-76
2022/10/21 05:01:56;;;;;;;163.93;38.37;;;12.10;99.90;;;;;;5027138;28;20241;-77
2022/10/21 05:04:23;;;;;;;137.60;37.13;;;12.10;99.90;;;;;;5020867;28;20535;-78
2022/10/21 05:06:50;;;;;;;118.67;37.10;;;12.10;99.90;;;;;;5020826;28;20214;-77
2022/10/21 05:09:18;;;;;;;154.40;37.83;;;12.10;99.90;;;;;;5020860;28;20756;-77
2022/10/21 05:11:45;;;;;;;127.17;36.73;;;12.10;99.90;;;;;;5024513;28;20650;-77
2022/10/21 05:14:11;;;;;;;116.30;38.17;;;12.10;99.90;;;;;;5023469;28;20641;-77
2022/10/21 05:16:38;;;;;;;144.50;38.80;;;12.00;99.90;;;;;;5032348;28;20659;-76
2022/10/21 05:19:05;;;;;;;132.67;37.50;;;12.00;99.90;;;;;;5030015;28;20321;-77
2022/10/21 05:21:32;;;;;;;123.53;37.67;;;12.10;99.90;;;;;;5026271;28;20578;-77
2022/10/21 05:23:58;;;;;;;145.23;40.13;;;12.10;99.90;;;;;;5027152;28;20245;-80
2022/10/21 05:26:27;;;;;;;159.20;40.80;;;12.10;99.90;;;;;;5027484;28;20202;-76
2022/10/21 05:28:54;;;;;;;145.83;39.80;;;12.10;99.90;;;;;;5029119;28;20252;-75
2022/10/21 05:31:21;;;;;;;141.37;41.13;;;12.10;99.90;;;;;;5026227;28;20193;-76
2022/10/21 05:33:47;;;;;;;174.80;40.63;;;12.10;99.90;;;;;;5035810;28;20240;-76
2022/10/21 05:36:14;;;;;;;149.70;39.10;;;12.10;99.90;;;;;;5029858;28;20233;-76
2022/10/21 05:38:45;;;;;;;201.47;41.37;;;12.00;99.90;;;;;;5018228;28;20757;-76
2022/10/21 05:41:11;;;;;;;170.43;39.17;;;12.00;99.90;;;;;;5027159;28;20205;-77
2022/10/21 05:43:38;;;;;;;162.27;36.93;;;12.00;99.90;;;;;;5023271;28;20706;-77
2022/10/21 05:46:07;;;;;;;148.00;36.77;;;12.00;99.90;;;;;;5028717;28;20233;-76
2022/10/21 05:48:34;;;;;;;193.83;40.40;;;11.90;99.90;;;;;;5033700;28;20210;-77
2022/10/21 05:51:01;;;;;;;135.57;33.87;;;11.90;99.90;;;;;;5030884;28;20271;-76
2022/10/21 05:53:30;;;;;;;162.37;38.70;;;11.90;99.90;;;;;;5028898;28;20201;-77
2022/10/21 05:56:04;;;;;;;109.17;33.43;;;11.90;99.90;;;;;;5027503;28;20202;-76
2022/10/21 05:58:34;;;;;;;142.87;35.93;;;11.80;99.90;;;;;;5022670;28;20233;-77
2022/10/21 06:01:04;;;;;;;133.67;38.77;;;11.80;99.90;;;;;;5022656;28;20206;-76
2022/10/21 06:03:34;;;;;;;144.83;37.37;;;11.80;99.90;;;;;;5023292;28;20664;-76
2022/10/21 06:06:04;;;;;;;126.97;38.30;;;11.90;99.90;;;;;;5031312;28;20640;-77
2022/10/21 06:08:34;;;;;;;126.50;38.50;;;11.80;99.90;;;;;;5023985;28;20293;-78
2022/10/21 06:11:07;;;;;;;137.77;36.87;;;11.90;99.90;;;;;;5028606;28;20561;-77
2022/10/21 06:13:34;;;;;;;121.43;37.90;;;12.00;99.90;;;;;;5023646;28;20240;-75
2022/10/21 06:16:06;;;;;;;123.03;37.20;;;11.80;99.90;;;;;;5034329;28;20193;-76
2022/10/21 06:18:33;;;;;;;148.80;39.23;;;11.90;99.90;;;;;;5023093;28;20237;-76
2022/10/21 06:21:00;;;;;;;124.17;38.40;;;11.90;99.90;;;;;;5028052;28;20274;-77
2022/10/21 06:23:27;;;;;;;144.20;39.80;;;11.90;99.90;;;;;;5019812;28;20206;-77
2022/10/21 06:25:59;;;;;;;137.20;39.37;;;12.00;99.90;;;;;;5031272;28;20685;-78
2022/10/21 06:28:27;;;;;;;132.30;39.43;;;12.00;99.90;;;;;;5022732;28;20198;-76
2022/10/21 06:30:54;;;;;;;124.73;38.40;;;12.00;99.90;;;;;;5024425;28;20305;-77
2022/10/21 06:33:21;;;;;;;129.07;39.40;;;12.10;99.90;;;;;;5034075;28;20359;-76
2022/10/21 06:35:56;;;;;;;142.43;40.17;;;12.10;99.90;;;;;;5029892;28;20245;-78
2022/10/21 06:38:23;;;;;;;144.90;39.83;;;12.10;99.90;;;;;;5031181;28;20305;-78
2022/10/21 06:40:50;;;;;;;133.97;40.20;;;12.20;99.90;;;;;;5025625;28;20760;-78
2022/10/21 06:43:17;;;;;;;136.43;38.67;;;12.20;99.90;;;;;;5026296;28;20252;-77
2022/10/21 06:45:44;;;;;;;139.60;37.47;;;12.30;99.90;;;;;;5020233;28;20265;-76
2022/10/21 06:48:12;;;;;;;182.50;39.73;;;12.30;99.90;;;;;;5029039;28;20578;-78
2022/10/21 06:50:39;;;;;;;128.07;36.07;;;12.30;99.90;;;;;;5024157;28;20218;-76
2022/10/21 06:53:06;;;;;;;131.37;36.00;;;12.40;99.90;;;;;;5027235;28;20209;-77
2022/10/21 06:55:33;;;;;;;161.13;39.87;;;12.40;99.90;;;;;;5022194;28;20314;-77
2022/10/21 06:58:00;;;;;;;129.07;38.20;;;12.40;99.90;;;;;;5025745;28;20411;-79
2022/10/21 07:00:26;;;;;;;134.30;38.00;;;12.50;99.90;;;;;;5023290;28;20557;-76
2022/10/21 07:02:53;;;;;;;127.90;37.70;;;12.50;99.90;;;;;;5027291;28;20283;-78
2022/10/21 07:05:20;;;;;;;119.57;37.03;;;12.60;99.90;;;;;;5025645;28;20301;-77
2022/10/21 07:07:47;;;;;;;149.00;38.73;;;12.60;99.90;;;;;;5026984;28;20197;-77
2022/10/21 07:10:16;;;;;;;149.30;39.00;;;12.70;99.90;;;;;;5023954;28;20218;-78
2022/10/21 07:12:43;;;;;;;116.00;39.13;;;12.70;99.90;;;;;;5030472;28;20324;-77
2022/10/21 07:15:10;;;;;;;130.40;39.97;;;12.80;99.90;;;;;;5049233;28;20218;-77
2022/10/21 07:17:37;;;;;;;125.67;40.60;;;12.90;99.90;;;;;;5025463;28;20210;-78
2022/10/21 07:20:05;;;;;;;154.93;41.70;;;13.00;99.90;;;;;;5026519;28;20312;-77
2022/10/21 07:22:34;;;;;;;128.83;38.57;;;13.10;99.90;;;;;;5025943;28;20220;-79
2022/10/21 07:25:00;;;;;;;121.30;39.27;;;13.20;99.90;;;;;;5023306;28;20293;-77
2022/10/21 07:27:27;;;;;;;135.00;39.93;;;13.30;99.90;;;;;;5026274;28;20210;-76
2022/10/21 07:29:54;;;;;;;162.33;42.30;;;13.40;99.90;;;;;;5020178;28;20288;-77
2022/10/21 07:32:20;;;;;;;116.97;38.70;;;13.40;99.90;;;;;;5028267;28;20209;-77
2022/10/21 07:34:47;;;;;;;112.90;37.63;;;13.50;99.90;;;;;;5020654;28;20236;-75
2022/10/21 07:37:14;;;;;;;110.17;37.33;;;13.50;99.90;;;;;;5025367;28;20218;-77
2022/10/21 07:39:41;;;;;;;136.53;39.03;;;13.70;99.90;;;;;;5022855;28;20235;-77
2022/10/21 07:42:08;;;;;;;87.90;34.53;;;13.70;99.90;;;;;;5023640;28;20283;-78
2022/10/21 07:44:35;;;;;;;107.57;37.30;;;13.80;99.90;;;;;;5024173;28;20238;-77
2022/10/21 07:47:02;;;;;;;103.27;35.27;;;13.90;99.90;;;;;;5014504;28;20230;-78
2022/10/21 07:49:28;;;;;;;101.40;34.60;;;13.90;99.90;;;;;;5027523;28;20600;-77
2022/10/21 07:51:56;;;;;;;101.87;35.10;;;14.00;99.90;;;;;;5020941;28;20293;-77
2022/10/21 07:54:23;;;;;;;87.87;32.33;;;14.10;99.90;;;;;;5032483;28;20206;-78
2022/10/21 07:56:51;;;;;;;114.87;35.10;;;14.10;99.90;;;;;;5023342;28;20655;-77
2022/10/21 07:59:19;;;;;;;90.83;33.57;;;14.10;99.90;;;;;;5055108;28;20640;-76
2022/10/21 08:01:47;;;;;;;104.13;34.40;;;14.20;99.90;;;;;;5020258;28;20199;-76
2022/10/21 08:04:18;;;;;;;93.37;32.70;;;14.30;99.90;;;;;;5026325;28;20660;-77
2022/10/21 08:06:46;;;;;;;94.00;32.43;;;14.20;99.90;;;;;;5020554;28;20210;-78
2022/10/21 08:09:14;;;;;;;101.47;32.73;;;14.30;99.90;;;;;;5025545;28;20293;-77
2022/10/21 08:11:41;;;;;;;82.47;32.47;;;14.30;99.90;;;;;;5023722;28;20210;-76
2022/10/21 08:14:09;;;;;;;77.77;30.67;;;14.40;99.90;;;;;;5025688;28;20287;-77
2022/10/21 08:16:36;;;;;;;109.30;32.80;;;14.50;99.90;;;;;;5025391;28;20752;-76
2022/10/21 08:19:04;;;;;;;81.47;29.47;;;14.50;99.90;;;;;;5025690;28;20880;-76
2022/10/21 08:21:31;;;;;;;77.97;30.07;;;14.60;99.90;;;;;;5026331;28;20241;-76
2022/10/21 08:24:00;;;;;;;73.03;29.97;;;14.60;99.90;;;;;;5024890;28;20855;-76
2022/10/21 08:26:27;;;;;;;82.60;30.30;;;14.60;99.90;;;;;;5022597;28;20205;-77
2022/10/21 08:28:53;;;;;;;73.57;28.27;;;14.70;99.90;;;;;;5021510;28;20288;-80
2022/10/21 08:31:21;;;;;;;78.87;31.77;;;14.80;99.90;;;;;;5024031;28;20216;-76
2022/10/21 08:33:48;;;;;;;74.50;29.90;;;14.90;99.90;;;;;;5023643;28;20231;-79
2022/10/21 08:36:21;;;;;;;70.55;28.98;;;15.00;99.90;;;;;;5032279;28;20205;-78
2022/10/21 08:38:48;;;;;;;64.78;27.17;;;15.10;99.90;;;;;;5021403;28;20253;-76
2022/10/21 08:41:44;;;;;;;58.47;26.02;;;15.20;99.90;;;;;;5023464;28;20201;-77
2022/10/21 08:44:31;;;;;;;64.07;25.63;;;15.30;99.90;;;;;;5027712;28;20202;-77
2022/10/21 08:47:09;;;;;;;55.53;25.08;;;15.40;99.90;;;;;;5015538;28;20210;-78
2022/10/21 08:49:43;;;;;;;55.97;24.67;;;15.40;99.90;;;;;;5025958;28;20222;-77
2022/10/21 08:52:20;;;;;;;53.78;24.90;;;15.50;99.90;;;;;;5023634;28;20217;-76
2022/10/21 08:54:58;;;;;;;50.72;24.35;;;15.60;99.90;;;;;;5025548;28;20259;-77
2022/10/21 08:57:25;;;;;;;45.85;24.95;;;15.70;99.90;;;;;;5030231;28;20412;-76
2022/10/21 08:59:53;;;;;;;53.60;25.40;;;15.70;99.90;;;;;;5024383;28;20229;-78
2022/10/21 09:02:42;;;;;;;48.72;21.88;;;15.90;99.90;;;;;;5031973;28;20201;-76
2022/10/21 09:05:20;;;;;;;40.40;21.45;;;;;;;;;;5027650;28;20616;-77
2022/10/21 09:08:11;;;;;;;41.67;21.05;;;15.90;99.90;;;;;;5026515;28;20237;-75
2022/10/21 09:11:18;;;;;;;37.58;19.23;;;16.00;99.90;;;;;;5032771;28;20198;-77
2022/10/21 09:14:21;;;;;;;34.13;18.20;;;16.00;99.90;;;;;;5030896;28;20582;-76
2022/10/21 09:17:05;;;;;;;38.45;19.20;;;16.10;99.90;;;;;;5028815;28;20678;-76
2022/10/21 09:19:44;;;;;;;37.33;19.02;;;16.10;99.90;;;;;;5032144;28;20328;-77
2022/10/21 09:22:32;;;;;;;33.53;18.30;;;16.10;99.90;;;;;;5026635;28;20316;-75
2022/10/21 09:25:20;;;;;;;30.42;17.52;;;16.10;99.90;;;;;;5029953;28;20241;-77
2022/10/21 09:27:47;;;;;;;39.13;17.85;;;16.10;99.90;;;;;;5023139;28;20216;-77
2022/10/21 09:30:23;;;;;;;39.05;19.00;;;16.10;99.90;;;;;;5021275;28;20275;-76
2022/10/21 09:32:58;;;;;;;30.85;18.48;;;16.10;99.90;;;;;;5027389;28;20249;-76
2022/10/21 09:35:57;;;;;;;37.92;17.55;;;16.20;99.90;;;;;;5054145;28;20706;-76
2022/10/21 09:38:37;;;;;;;34.50;17.02;;;16.20;99.90;;;;;;5010500;28;20233;-75
2022/10/21 09:41:06;;;;;;;28.13;16.45;;;16.20;99.90;;;;;;5029842;28;20253;-75
2022/10/21 09:43:33;;;;;;;30.75;18.25;;;16.30;99.90;;;;;;5025731;28;20290;-78
2022/10/21 09:46:00;;;;;;;32.15;16.85;;;16.30;99.90;;;;;;5023647;28;20237;-75
2022/10/21 09:49:15;;;;;;;25.00;15.13;;;16.30;99.90;;;;;;5018366;28;20230;-75
2022/10/21 09:52:05;;;;;;;26.52;14.48;;;16.30;99.90;;;;;;5026992;28;20214;-75
2022/10/21 09:54:36;;;;;;;26.65;14.63;;;16.30;99.90;;;;;;5026493;28;20215;-77
2022/10/21 09:57:31;;;;;;;23.17;13.50;;;16.30;99.90;;;;;;5026867;28;20213;-76
2022/10/21 10:00:00;;;;;;;25.13;13.15;;;16.30;99.90;;;;;;5024292;28;20256;-77
2022/10/21 10:02:34;;;;;;;22.23;13.40;;;16.30;99.90;;;;;;5033075;28;20674;-76
2022/10/21 10:05:42;;;;;;;26.40;14.38;;;16.20;99.90;;;;;;5023921;28;20213;-75
2022/10/21 10:08:25;;;;;;;24.48;13.32;;;16.40;99.90;;;;;;5039370;28;20238;-75
2022/10/21 10:11:14;;;;;;;24.45;13.18;;;16.50;99.90;;;;;;5028502;28;20252;-78
2022/10/21 10:13:48;;;;;;;20.23;11.80;;;16.50;99.90;;;;;;5028434;28;20198;-75
2022/10/21 10:16:32;;;;;;;22.13;12.70;;;16.30;99.90;;;;;;5022257;28;20213;-76
2022/10/21 10:19:22;;;;;;;17.95;10.48;;;16.60;99.90;;;;;;5026682;28;20717;-76
2022/10/21 10:22:07;;;;;;;19.55;10.88;;;16.70;99.90;;;;;;5029717;28;20206;-76
2022/10/21 10:24:39;;;;;;;14.77;10.52;;;16.80;99.90;;;;;;5024117;28;20662;-76
2022/10/21 10:27:22;;;;;;;22.58;9.93;;;16.90;99.90;;;;;;5029053;28;20221;-77
2022/10/21 10:29:54;;;;;;;16.73;9.25;;;16.90;99.90;;;;;;5024681;28;20313;-75
2022/10/21 10:32:24;;;;;;;17.13;8.30;;;16.80;99.90;;;;;;5024929;28;20253;-76
2022/10/21 10:34:57;;;;;;;16.38;9.43;;;17.00;99.90;;;;;;5030069;28;20290;-77
2022/10/21 10:37:37;;;;;;;17.92;9.55;;;17.00;99.90;;;;;;5018600;28;20201;-76
2022/10/21 10:40:08;;;;;;;14.13;7.88;;;17.00;99.90;;;;;;5028467;28;20280;-76
2022/10/21 10:42:41;;;;;;;14.05;8.48;;;17.00;99.90;;;;;;5026025;28;20211;-76
2022/10/21 10:45:19;;;;;;;20.05;8.75;;;17.00;99.90;;;;;;5022322;28;20209;-77
2022/10/21 10:47:55;;;;;;;15.80;8.52;;;17.10;99.90;;;;;;5024859;28;20206;-75
2022/10/21 10:50:45;;;;;;;13.48;8.52;;;17.10;99.90;;;;;;5057618;28;20696;-75
2022/10/21 10:53:27;;;;;;;12.25;8.45;;;17.20;99.90;;;;;;5023518;28;20738;-75
2022/10/21 10:55:58;;;;;;;17.77;7.95;;;17.20;99.90;;;;;;5050971;28;20198;-75
2022/10/21 10:58:30;;;;;;;13.23;7.80;;;17.30;99.90;;;;;;5022835;28;20213;-76
2022/10/21 11:01:01;;;;;;;12.75;8.05;;;17.30;99.90;;;;;;5031433;28;20194;-75
2022/10/21 11:03:38;;;;;;;13.50;8.82;;;17.30;99.90;;;;;;5022886;28;20290;-74
2022/10/21 11:06:16;;;;;;;18.52;9.00;;;17.30;99.90;;;;;;5022686;28;20639;-74
2022/10/21 11:08:51;;;;;;;13.05;8.85;;;17.30;99.90;;;;;;5025089;28;20256;-75
2022/10/21 11:11:26;;;;;;;15.45;9.35;;;17.20;99.90;;;;;;5025112;28;20216;-74
2022/10/21 11:13:53;;;;;;;16.05;8.43;;;17.20;99.90;;;;;;5028150;28;20275;-73
2022/10/21 11:16:35;;;;;;;14.57;7.95;;;17.20;99.90;;;;;;5032176;28;20313;-76
2022/10/21 11:19:17;;;;;;;15.75;8.48;;;17.20;99.90;;;;;;5028408;28;20237;-75
2022/10/21 11:21:53;;;;;;;12.85;8.23;;;17.20;99.90;;;;;;5029255;28;20732;-75
2022/10/21 11:24:35;;;;;;;14.45;8.02;;;17.20;99.90;;;;;;5022328;28;20217;-75
2022/10/21 11:27:29;;;;;;;15.27;8.18;;;17.30;99.90;;;;;;5025944;28;20309;-74
2022/10/21 11:30:18;;;;;;;12.23;7.80;;;17.30;99.90;;;;;;5027620;28;20655;-76
2022/10/21 11:32:55;;;;;;;12.55;7.50;;;17.50;99.90;;;;;;5023962;28;20230;-76
2022/10/21 11:35:51;;;;;;;15.57;7.95;;;17.50;99.90;;;;;;5022707;28;20276;-78
2022/10/21 11:38:47;;;;;;;12.57;6.72;;;17.50;99.90;;;;;;5020997;28;20201;-77
2022/10/21 11:41:38;;;;;;;12.32;7.80;;;17.60;99.90;;;;;;5026481;28;20289;-76
2022/10/21 11:44:15;;;;;;;11.82;6.90;;;17.70;99.90;;;;;;5027219;28;20654;-76
2022/10/21 11:47:10;;;;;;;12.18;6.00;;;17.70;99.90;;;;;;5020243;28;20552;-76
2022/10/21 11:49:48;;;;;;;15.20;6.90;;;17.80;99.90;;;;;;5028066;28;20222;-77
2022/10/21 11:52:23;;;;;;;10.15;6.72;;;17.80;99.90;;;;;;5023501;28;20289;-77
2022/10/21 11:54:58;;;;;;;11.70;6.25;;;17.80;99.90;;;;;;5029895;28;20202;-77
2022/10/21 11:57:42;;;;;;;9.35;6.72;;;17.90;99.90;;;;;;5032139;28;20236;-77
2022/10/21 12:00:20;;;;;;;14.38;6.95;;;17.90;99.90;;;;;;5022501;28;20229;-78
2022/10/21 12:03:24;;;;;;;16.02;7.25;;;17.90;99.90;;;;;;5045215;28;20207;-76
2022/10/21 12:05:57;;;;;;;14.93;7.38;;;17.90;99.90;;;;;;5029737;28;20645;-76
2022/10/21 12:08:32;;;;;;;12.30;6.50;;;18.10;99.90;;;;;;5047299;28;20197;-76
2022/10/21 12:11:07;;;;;;;12.02;7.10;;;18.30;99.90;;;;;;5026627;28;20691;-78
2022/10/21 12:13:45;;;;;;;12.25;7.13;;;18.30;99.90;;;;;;5020358;28;20719;-78
2022/10/21 12:16:16;;;;;;;12.27;6.97;;;18.50;99.90;;;;;;5029182;28;20622;-78
2022/10/21 12:18:52;;;;;;;11.73;7.00;;;18.50;99.90;;;;;;5048667;28;20216;-77
2022/10/21 12:21:37;;;;;;;11.90;6.22;;;18.70;99.90;;;;;;5029161;28;20224;-78
2022/10/21 12:24:29;;;;;;;14.43;7.00;;;18.70;99.90;;;;;;5023386;28;20209;-77
2022/10/21 12:27:02;;;;;;;12.30;6.53;;;18.70;99.90;;;;;;5025105;28;20213;-79
2022/10/21 12:29:58;;;;;;;11.80;7.00;;;18.70;99.90;;;;;;5029226;28;20720;-78
2022/10/21 12:32:43;;;;;;;14.93;6.38;;;18.80;99.90;;;;;;5046507;28;20690;-77
2022/10/21 12:35:26;;;;;;;9.73;5.25;;;18.80;99.90;;;;;;5026604;28;20222;-79
2022/10/21 12:37:53;;;;;;;10.13;5.53;;;19.00;99.90;;;;;;5029521;28;20202;-77
2022/10/21 12:40:26;;;;;;;10.77;5.07;;;19.20;99.90;;;;;;5051408;28;20309;-78
2022/10/21 12:43:18;;;;;;;7.57;4.78;;;19.30;99.90;;;;;;5022574;28;20340;-78
2022/10/21 12:45:59;;;;;;;8.82;5.28;;;19.40;99.90;;;;;;5017721;28;20320;-78
2022/10/21 12:48:47;;;;;;;9.88;4.38;;;19.50;99.90;;;;;;5025940;28;20202;-77
2022/10/21 12:51:26;;;;;;;7.20;3.88;;;19.60;99.90;;;;;;5024567;28;20230;-76
2022/10/21 12:54:02;;;;;;;9.00;3.60;;;19.60;99.90;;;;;;5021784;28;20304;-78